Time;durP1;ratioP1;P1;durP2;ratioP2;P2;SDS_P1;SDS_P2;PMS_P1;PMS_P2;Temp;Humidity;BMP_temperature;BMP_pressure;BME280_temperature;BME280_humidity;BME280_pressure;Samples;Min_cycle;Max_cycle;Signal;HPM_P1;HPM_P2
2022/04/20 00:00:30;;;;;;;9.47;5.20;;;8.50;87.00;;;;;;5053236;28;20650;-80
2022/04/20 00:02:58;;;;;;;9.37;4.90;;;8.50;87.00;;;;;;5053260;28;20197;-80
2022/04/20 00:05:27;;;;;;;7.23;5.10;;;8.50;87.30;;;;;;5052671;28;20221;-80
2022/04/20 00:07:55;;;;;;;7.83;4.60;;;8.40;87.10;;;;;;5057521;28;20248;-81
2022/04/20 00:10:25;;;;;;;12.73;5.40;;;8.40;87.20;;;;;;5053550;28;20738;-81
2022/04/20 00:12:53;;;;;;;6.17;4.37;;;8.40;87.10;;;;;;5052445;28;20209;-82
2022/04/20 00:15:23;;;;;;;7.00;4.60;;;8.40;87.20;;;;;;5052370;28;20204;-81
2022/04/20 00:17:52;;;;;;;6.83;4.67;;;8.40;87.20;;;;;;5053043;28;20198;-81
2022/04/20 00:20:21;;;;;;;7.63;4.97;;;8.40;87.20;;;;;;5056398;28;20212;-82
2022/04/20 00:22:51;;;;;;;8.37;4.73;;;8.40;87.20;;;;;;5054490;28;20198;-82
2022/04/20 00:25:27;;;;;;;11.97;5.30;;;8.40;87.20;;;;;;5073042;28;20202;-82
2022/04/20 00:27:55;;;;;;;11.53;5.30;;;8.30;87.20;;;;;;5078726;28;20222;-81
2022/04/20 00:30:27;;;;;;;7.50;4.73;;;8.30;87.20;;;;;;5067449;28;20258;-80
2022/04/20 00:32:56;;;;;;;9.37;5.03;;;8.30;87.20;;;;;;5074234;28;20214;-79
2022/04/20 00:35:27;;;;;;;8.17;5.63;;;8.20;87.10;;;;;;5074594;28;20216;-80
2022/04/20 00:37:56;;;;;;;10.67;5.80;;;8.20;87.10;;;;;;5075916;28;20211;-82
2022/04/20 00:40:24;;;;;;;8.73;4.80;;;8.20;87.00;;;;;;5073136;28;20192;-82
2022/04/20 00:42:54;;;;;;;9.23;5.00;;;8.20;87.10;;;;;;5074637;28;21344;-80
2022/04/20 00:45:24;;;;;;;7.63;5.03;;;8.20;87.20;;;;;;5074627;28;20239;-81
2022/04/20 00:47:54;;;;;;;7.53;4.97;;;8.20;87.20;;;;;;5073846;28;20210;-82
2022/04/20 00:50:23;;;;;;;8.77;5.37;;;8.10;87.10;;;;;;5077111;28;20221;-81
2022/04/20 00:52:52;;;;;;;6.93;5.13;;;8.10;87.10;;;;;;5072261;28;20666;-79
2022/04/20 00:55:28;;;;;;;8.57;5.63;;;8.10;87.10;;;;;;5071011;28;20909;-79
2022/04/20 00:57:58;;;;;;;9.03;5.80;;;8.10;87.10;;;;;;5069986;28;20218;-80
2022/04/20 01:00:27;;;;;;;9.53;4.87;;;8.10;87.10;;;;;;5070493;28;20205;-80
2022/04/20 01:02:56;;;;;;;10.10;5.30;;;8.10;87.10;;;;;;5078279;28;20266;-80
2022/04/20 01:05:24;;;;;;;13.63;5.00;;;8.10;86.90;;;;;;5075629;28;21023;-79
2022/04/20 01:07:53;;;;;;;9.60;5.17;;;8.10;86.90;;;;;;5075052;28;20197;-80
2022/04/20 01:10:21;;;;;;;9.77;5.20;;;8.10;86.90;;;;;;5072317;28;20234;-79
2022/04/20 01:12:50;;;;;;;8.63;5.60;;;8.10;86.80;;;;;;5072015;28;20549;-80
2022/04/20 01:15:20;;;;;;;8.43;5.83;;;8.10;86.70;;;;;;5071787;28;20197;-80
2022/04/20 01:17:48;;;;;;;8.83;5.20;;;8.10;86.60;;;;;;5073160;28;20285;-79
2022/04/20 01:20:18;;;;;;;9.00;5.00;;;8.10;86.60;;;;;;5078633;28;20208;-80
2022/04/20 01:22:47;;;;;;;9.70;5.80;;;8.10;86.70;;;;;;5078539;28;20211;-80
2022/04/20 01:25:16;;;;;;;9.93;5.33;;;8.00;86.50;;;;;;5075352;28;20576;-80
2022/04/20 01:27:44;;;;;;;8.83;5.40;;;8.00;86.50;;;;;;5068666;28;20204;-80
2022/04/20 01:30:13;;;;;;;9.23;5.40;;;8.00;86.50;;;;;;5066533;28;20225;-80
2022/04/20 01:32:41;;;;;;;7.60;5.60;;;8.00;87.40;;;;;;5077264;28;21582;-80
2022/04/20 01:35:10;;;;;;;8.90;5.73;;;8.00;86.50;;;;;;5081316;28;20201;-79
2022/04/20 01:37:38;;;;;;;9.00;6.10;;;8.00;86.50;;;;;;5076334;28;20202;-80
2022/04/20 01:40:10;;;;;;;8.27;5.53;;;7.90;86.50;;;;;;5077859;28;20955;-80
2022/04/20 01:42:38;;;;;;;9.53;5.97;;;7.90;86.50;;;;;;5079479;28;20193;-80
2022/04/20 01:45:07;;;;;;;10.30;6.53;;;7.90;86.50;;;;;;5078563;28;20202;-80
2022/04/20 01:47:35;;;;;;;9.70;6.70;;;7.90;86.50;;;;;;5075035;28;20200;-80
2022/04/20 01:50:05;;;;;;;8.33;6.03;;;7.90;86.60;;;;;;5075978;28;20226;-80
2022/04/20 01:52:33;;;;;;;9.27;6.30;;;7.80;86.50;;;;;;5078089;28;20287;-80
2022/04/20 01:55:01;;;;;;;10.00;6.10;;;7.80;86.50;;;;;;5076523;28;20301;-80
2022/04/20 01:57:33;;;;;;;10.30;6.30;;;7.90;86.50;;;;;;5080583;28;20199;-82
2022/04/20 02:00:01;;;;;;;14.20;5.97;;;7.80;86.40;;;;;;5077538;28;20226;-80
2022/04/20 02:02:35;;;;;;;8.83;5.70;;;7.80;86.30;;;;;;5074831;28;20556;-81
2022/04/20 02:05:05;;;;;;;14.40;7.00;;;7.80;86.30;;;;;;5076745;28;20689;-81
2022/04/20 02:07:33;;;;;;;9.07;5.67;;;7.80;86.30;;;;;;5076744;28;20200;-80
2022/04/20 02:10:03;;;;;;;8.93;6.07;;;7.80;86.40;;;;;;5076636;28;20254;-81
2022/04/20 02:12:33;;;;;;;9.97;6.83;;;7.70;86.40;;;;;;5076990;28;20209;-81
2022/04/20 02:15:02;;;;;;;11.37;6.73;;;7.70;86.50;;;;;;5076365;28;20207;-80
2022/04/20 02:17:30;;;;;;;11.40;7.20;;;7.70;86.60;;;;;;5078963;28;20204;-81
2022/04/20 02:19:59;;;;;;;10.97;6.63;;;7.70;86.60;;;;;;5076192;28;20687;-82
2022/04/20 02:22:28;;;;;;;10.57;7.40;;;7.70;86.70;;;;;;5076243;28;20287;-79
2022/04/20 02:24:56;;;;;;;10.23;6.53;;;7.70;86.60;;;;;;5077676;28;20236;-80
2022/04/20 02:27:25;;;;;;;12.07;6.33;;;7.70;86.70;;;;;;5079157;28;20202;-80
2022/04/20 02:29:54;;;;;;;10.40;6.63;;;7.70;86.70;;;;;;5079087;28;20208;-81
2022/04/20 02:32:23;;;;;;;10.77;7.00;;;7.60;86.70;;;;;;5078611;28;20198;-80
2022/04/20 02:34:51;;;;;;;13.73;7.17;;;7.60;86.70;;;;;;5073934;28;20204;-80
2022/04/20 02:37:20;;;;;;;11.32;7.70;;;7.60;86.70;;;;;;5077302;28;20442;-80
2022/04/20 02:39:49;;;;;;;10.70;6.93;;;7.60;87.40;;;;;;5076545;28;20201;-79
2022/04/20 02:42:18;;;;;;;9.53;6.37;;;7.60;87.40;;;;;;5076712;28;20193;-79
2022/04/20 02:44:46;;;;;;;9.70;6.40;;;7.60;87.10;;;;;;5079095;28;20209;-80
2022/04/20 02:47:17;;;;;;;11.30;7.27;;;7.60;87.00;;;;;;5076655;28;20192;-79
2022/04/20 02:49:45;;;;;;;11.17;7.13;;;7.60;86.90;;;;;;5074838;28;20681;-79
2022/04/20 02:52:14;;;;;;;12.23;7.27;;;7.60;86.90;;;;;;5079701;28;20215;-80
2022/04/20 02:54:42;;;;;;;11.73;7.07;;;7.60;86.80;;;;;;5076609;28;20217;-79
2022/04/20 02:57:10;;;;;;;10.67;6.97;;;7.60;86.80;;;;;;5077664;28;20209;-79
2022/04/20 02:59:39;;;;;;;10.53;6.53;;;7.50;86.70;;;;;;5076904;28;20658;-80
2022/04/20 03:02:07;;;;;;;10.47;7.03;;;7.50;86.80;;;;;;5076891;28;20885;-79
2022/04/20 03:04:41;;;;;;;10.20;6.93;;;7.50;86.70;;;;;;5071431;28;20544;-80
2022/04/20 03:07:10;;;;;;;13.90;7.87;;;7.50;86.80;;;;;;5072918;28;20281;-80
2022/04/20 03:09:39;;;;;;;11.57;6.90;;;7.50;86.80;;;;;;5076791;28;20253;-79
2022/04/20 03:12:08;;;;;;;9.57;6.63;;;7.40;86.80;;;;;;5075485;28;20216;-79
2022/04/20 03:14:37;;;;;;;13.37;7.73;;;7.40;86.80;;;;;;5071704;28;20204;-78
2022/04/20 03:17:06;;;;;;;15.53;8.17;;;7.40;86.80;;;;;;5069474;28;20299;-80
2022/04/20 03:19:34;;;;;;;16.67;7.77;;;7.40;86.80;;;;;;5075067;28;20223;-78
2022/04/20 03:22:04;;;;;;;13.50;7.40;;;7.40;86.90;;;;;;5078537;28;20211;-80
2022/04/20 03:24:34;;;;;;;15.73;7.27;;;7.30;86.90;;;;;;5076240;28;20242;-81
2022/04/20 03:27:02;;;;;;;13.50;7.90;;;7.30;86.90;;;;;;5080140;28;20211;-79
2022/04/20 03:29:31;;;;;;;14.73;8.00;;;7.30;87.40;;;;;;5078031;28;20206;-78
2022/04/20 03:32:00;;;;;;;14.97;8.77;;;7.30;87.00;;;;;;5078254;28;20281;-79
2022/04/20 03:34:30;;;;;;;16.77;8.30;;;7.30;87.00;;;;;;5072011;28;20206;-80
2022/04/20 03:36:58;;;;;;;15.60;9.23;;;7.30;87.20;;;;;;5069387;28;20204;-80
2022/04/20 03:39:28;;;;;;;18.90;9.73;;;7.30;87.20;;;;;;5066563;28;20200;-79
2022/04/20 03:41:56;;;;;;;16.13;9.00;;;7.20;87.20;;;;;;5079859;28;20198;-80
2022/04/20 03:44:24;;;;;;;18.57;9.63;;;7.20;87.20;;;;;;5077861;28;20207;-80
2022/04/20 03:46:53;;;;;;;21.47;10.20;;;7.30;87.40;;;;;;5075253;28;20202;-80
2022/04/20 03:49:21;;;;;;;17.77;9.33;;;7.30;87.40;;;;;;5075074;28;20199;-80
2022/04/20 03:51:50;;;;;;;19.53;9.60;;;7.20;87.30;;;;;;5079135;28;20215;-80
2022/04/20 03:54:18;;;;;;;18.50;9.60;;;7.20;87.30;;;;;;5074510;28;20661;-79
2022/04/20 03:57:04;;;;;;;14.63;9.80;;;7.20;87.50;;;;;;5072172;28;20200;-79
2022/04/20 03:59:33;;;;;;;12.30;8.40;;;7.20;87.50;;;;;;5076863;28;20188;-79
2022/04/20 04:02:02;;;;;;;13.57;9.00;;;7.20;87.70;;;;;;5076010;28;20896;-80
2022/04/20 04:04:30;;;;;;;17.10;8.77;;;7.20;87.90;;;;;;5073304;28;20699;-80
2022/04/20 04:06:59;;;;;;;13.83;8.40;;;7.20;87.80;;;;;;5076479;28;20979;-81
2022/04/20 04:09:31;;;;;;;16.23;9.13;;;7.20;87.90;;;;;;5073598;28;20246;-79
2022/04/20 04:12:01;;;;;;;13.73;7.97;;;7.20;87.90;;;;;;5077814;28;20255;-79
2022/04/20 04:14:30;;;;;;;14.80;8.40;;;7.20;88.00;;;;;;5076816;28;20192;-80
2022/04/20 04:16:58;;;;;;;12.70;8.50;;;7.20;88.10;;;;;;5073984;28;20211;-80
2022/04/20 04:19:27;;;;;;;14.57;8.70;;;7.20;88.20;;;;;;5069419;28;20200;-80
2022/04/20 04:22:02;;;;;;;16.13;8.93;;;7.20;88.20;;;;;;5064994;28;20232;-80
2022/04/20 04:24:37;;;;;;;17.20;8.63;;;7.30;88.30;;;;;;5079759;28;20327;-81
2022/04/20 04:27:24;;;;;;;14.47;8.30;;;7.30;88.40;;;;;;5072527;28;20189;-83
2022/04/20 04:29:53;;;;;;;15.27;9.03;;;7.30;88.50;;;;;;5077830;28;20559;-81
2022/04/20 04:32:21;;;;;;;16.48;9.70;;;7.40;88.60;;;;;;5077228;28;21198;-81
2022/04/20 04:35:29;;;;;;;14.23;9.87;;;7.40;88.80;;;;;;5072634;28;20205;-82
2022/04/20 04:38:02;;;;;;;18.87;10.40;;;7.40;88.80;;;;;;5070200;28;20196;-81
2022/04/20 04:40:35;;;;;;;16.70;9.60;;;7.50;88.90;;;;;;5072270;28;20297;-80
2022/04/20 04:43:05;;;;;;;17.47;9.87;;;7.50;88.80;;;;;;5075408;28;20197;-83
2022/04/20 04:48:39;;;;;;;13.37;8.90;;;7.60;89.00;;;;;;5074014;28;20596;-80
2022/04/20 04:51:11;;;;;;;15.57;9.53;;;7.60;89.00;;;;;;5075967;28;20559;-80
2022/04/20 04:53:40;;;;;;;15.27;9.43;;;7.60;89.00;;;;;;5059325;28;20571;-79
2022/04/20 04:56:11;;;;;;;14.20;9.53;;;7.70;89.30;;;;;;5077619;28;20186;-80
2022/04/20 04:58:41;;;;;;;16.57;9.80;;;7.70;89.50;;;;;;5074963;28;20212;-79
2022/04/20 05:01:09;;;;;;;16.57;9.43;;;7.70;89.50;;;;;;5077094;28;20204;-78
2022/04/20 05:03:38;;;;;;;14.93;9.67;;;7.80;89.40;;;;;;5073943;28;20609;-78
2022/04/20 05:06:06;;;;;;;13.87;9.20;;;7.80;89.60;;;;;;5079051;28;20321;-79
2022/04/20 05:08:34;;;;;;;15.10;9.63;;;7.90;89.60;;;;;;5080420;28;20703;-80
2022/04/20 05:11:03;;;;;;;15.70;9.00;;;7.90;89.60;;;;;;5086533;28;20287;-81
2022/04/20 05:13:39;;;;;;;16.13;9.87;;;7.90;89.70;;;;;;5077440;28;20231;-81
2022/04/20 05:16:11;;;;;;;15.07;10.07;;;8.00;89.90;;;;;;5080382;28;20198;-80
2022/04/20 05:18:45;;;;;;;14.17;9.30;;;8.10;90.00;;;;;;5079914;28;20193;-80
2022/04/20 05:21:18;;;;;;;17.80;10.23;;;8.10;89.90;;;;;;5077392;28;20253;-81
2022/04/20 05:23:47;;;;;;;19.67;11.47;;;8.20;90.00;;;;;;5080979;28;20232;-80
2022/04/20 05:26:16;;;;;;;19.63;10.90;;;8.20;89.90;;;;;;5084968;28;20289;-80
2022/04/20 05:28:44;;;;;;;19.03;10.60;;;8.30;90.00;;;;;;5087549;28;20205;-81
2022/04/20 05:31:14;;;;;;;15.87;10.13;;;8.40;90.00;;;;;;5087116;28;20198;-81
2022/04/20 05:33:43;;;;;;;17.50;10.43;;;8.40;90.00;;;;;;5082256;28;21812;-82
2022/04/20 05:36:12;;;;;;;17.77;10.20;;;8.50;90.00;;;;;;5084803;28;20193;-81
2022/04/20 05:41:42;;;;;;;16.80;10.77;;;8.60;90.00;;;;;;5082942;28;20206;-83
2022/04/20 05:44:12;;;;;;;19.93;11.37;;;8.60;90.00;;;;;;5082390;28;20240;-82
2022/04/20 05:46:46;;;;;;;20.70;11.57;;;8.70;90.00;;;;;;5084099;28;20276;-85
2022/04/20 05:49:15;;;;;;;16.90;10.60;;;8.80;90.00;;;;;;5082170;28;20288;-83
2022/04/20 05:51:44;;;;;;;19.57;10.97;;;8.90;90.00;;;;;;5089649;28;20271;-83
2022/04/20 05:54:18;;;;;;;23.10;12.37;;;8.90;89.80;;;;;;5080432;28;20213;-84
2022/04/20 05:57:03;;;;;;;20.77;11.77;;;9.00;89.90;;;;;;5079884;28;20207;-81
2022/04/20 05:59:32;;;;;;;26.47;12.57;;;9.10;89.90;;;;;;5075381;28;20651;-82
2022/04/20 06:02:02;;;;;;;19.37;11.37;;;9.20;89.80;;;;;;5075549;28;20222;-83
2022/04/20 06:04:30;;;;;;;22.13;11.40;;;9.30;89.90;;;;;;5078447;28;20194;-81
2022/04/20 06:06:59;;;;;;;21.60;12.40;;;9.40;89.80;;;;;;5078017;28;20202;-82
2022/04/20 06:09:30;;;;;;;22.33;12.47;;;9.50;89.90;;;;;;5073452;28;20202;-83
2022/04/20 06:11:59;;;;;;;22.47;12.60;;;9.50;89.90;;;;;;5082995;28;20201;-81
2022/04/20 06:14:27;;;;;;;26.13;12.80;;;9.60;89.60;;;;;;5078670;28;20230;-80
2022/04/20 06:16:56;;;;;;;20.13;12.13;;;9.80;89.50;;;;;;5078768;28;20655;-81
2022/04/20 06:19:26;;;;;;;22.53;13.10;;;9.80;89.30;;;;;;5074272;28;20650;-81
2022/04/20 06:21:54;;;;;;;20.97;12.20;;;9.90;89.30;;;;;;5076381;28;20188;-80
2022/04/20 06:24:23;;;;;;;23.30;12.23;;;10.10;89.10;;;;;;5079778;28;20225;-81
2022/04/20 06:26:51;;;;;;;24.57;12.80;;;10.20;89.10;;;;;;5080858;28;20189;-79
2022/04/20 06:29:20;;;;;;;22.60;12.87;;;10.30;88.90;;;;;;5080367;28;20904;-79
2022/04/20 06:31:48;;;;;;;20.63;12.30;;;10.40;88.80;;;;;;5081075;28;20201;-79
2022/04/20 06:34:17;;;;;;;24.23;13.40;;;10.50;88.50;;;;;;5082488;28;20228;-78
2022/04/20 06:36:47;;;;;;;26.47;14.60;;;10.60;88.20;;;;;;5072147;28;20894;-77
2022/04/20 06:39:15;;;;;;;27.40;15.77;;;10.70;87.70;;;;;;5080633;28;20570;-78
2022/04/20 06:41:44;;;;;;;31.33;14.70;;;10.80;87.60;;;;;;5078386;28;20717;-77
2022/04/20 06:44:12;;;;;;;28.53;15.37;;;11.00;87.50;;;;;;5079745;28;20188;-79
2022/04/20 06:46:41;;;;;;;28.67;15.27;;;11.10;87.40;;;;;;5082963;28;20257;-79
2022/04/20 06:49:11;;;;;;;26.87;14.77;;;11.20;87.10;;;;;;5079265;28;20205;-80
2022/04/20 07:00:00;;;;;;;26.60;13.17;;;11.60;84.90;;;;;;5080255;28;20630;-79
2022/04/20 07:02:34;;;;;;;22.20;11.77;;;11.70;84.70;;;;;;5080605;28;20221;-79
2022/04/20 07:05:02;;;;;;;18.87;11.87;;;11.80;84.70;;;;;;5078061;28;20210;-81
2022/04/20 07:07:31;;;;;;;20.80;11.73;;;11.90;84.70;;;;;;5081535;28;20225;-81
2022/04/20 07:10:21;;;;;;;21.23;12.37;;;12.00;83.80;;;;;;5077144;28;20193;-82
2022/04/20 07:12:51;;;;;;;20.53;11.03;;;12.10;83.00;;;;;;5075987;28;20755;-82
2022/04/20 07:15:20;;;;;;;18.53;10.40;;;12.20;83.20;;;;;;5078712;28;20725;-82
2022/04/20 07:17:49;;;;;;;18.00;10.43;;;12.20;82.20;;;;;;5078646;28;20219;-79
2022/04/20 07:20:18;;;;;;;16.80;9.97;;;12.30;82.40;;;;;;5078370;28;20197;-80
2022/04/20 07:22:51;;;;;;;14.63;8.73;;;12.40;82.50;;;;;;5075654;28;20263;-83
2022/04/20 07:25:21;;;;;;;16.90;9.07;;;12.50;82.20;;;;;;5079295;28;20264;-85
2022/04/20 07:27:52;;;;;;;15.73;9.53;;;12.60;81.80;;;;;;5081767;28;20189;-80
2022/04/20 07:30:21;;;;;;;17.47;8.53;;;12.70;81.20;;;;;;5082556;28;20207;-83
2022/04/20 07:32:49;;;;;;;15.60;8.20;;;12.70;79.70;;;;;;5078694;28;20269;-81
2022/04/20 07:35:18;;;;;;;16.93;7.50;;;12.80;80.80;;;;;;5075914;28;20203;-80
2022/04/20 07:37:46;;;;;;;10.43;6.13;;;12.90;79.90;;;;;;5077829;28;20193;-79
2022/04/20 07:40:18;;;;;;;10.07;5.97;;;12.90;78.80;;;;;;5079941;28;20201;-83
2022/04/20 07:42:48;;;;;;;11.53;6.70;;;13.00;78.60;;;;;;5077372;28;20201;-80
2022/04/20 07:45:17;;;;;;;10.47;6.80;;;13.10;77.90;;;;;;5079494;28;20202;-81
2022/04/20 07:47:46;;;;;;;10.90;6.47;;;13.10;77.10;;;;;;5080678;28;20202;-85
2022/04/20 07:50:21;;;;;;;12.63;6.83;;;13.30;77.40;;;;;;5090630;28;20260;-85
2022/04/20 07:52:51;;;;;;;11.03;6.67;;;13.30;77.30;;;;;;5091137;28;20184;-85
2022/04/20 07:55:21;;;;;;;9.47;5.73;;;13.30;76.60;;;;;;5082601;28;20198;-83
2022/04/20 07:57:53;;;;;;;9.00;5.50;;;13.40;76.60;;;;;;5079474;28;20376;-82
2022/04/20 08:00:27;;;;;;;8.93;5.00;;;13.50;76.30;;;;;;5080461;28;20203;-84
2022/04/20 08:03:13;;;;;;;8.70;5.53;;;13.60;74.90;;;;;;5083367;28;20235;-86
2022/04/20 08:05:42;;;;;;;9.13;5.43;;;13.70;74.20;;;;;;5080152;28;20193;-85
2022/04/20 08:08:21;;;;;;;8.93;5.23;;;13.70;73.30;;;;;;5083808;28;20313;-85
2022/04/20 08:11:03;;;;;;;10.23;5.30;;;13.80;73.50;;;;;;5031359;28;20197;-84
2022/04/20 08:16:21;;;;;;;7.90;4.33;;;13.90;73.30;;;;;;5061070;28;20831;-86
2022/04/20 08:18:49;;;;;;;8.63;4.70;;;14.00;73.50;;;;;;5077885;28;20251;-87
2022/04/20 08:21:18;;;;;;;8.07;4.33;;;14.00;72.70;;;;;;5079421;28;20204;-82
2022/04/20 08:23:46;;;;;;;5.87;4.00;;;14.10;72.30;;;;;;5076260;28;20240;-85
2022/04/20 08:26:15;;;;;;;7.53;4.60;;;14.10;72.20;;;;;;5070434;28;20832;-82
2022/04/20 08:28:46;;;;;;;8.13;3.83;;;14.20;71.40;;;;;;5078054;28;20807;-85
2022/04/20 08:31:15;;;;;;;7.87;3.60;;;14.30;71.30;;;;;;5078391;28;20208;-85
2022/04/20 08:33:43;;;;;;;5.70;3.87;;;14.40;70.80;;;;;;5074624;28;20643;-87
2022/04/20 08:36:12;;;;;;;6.97;3.50;;;14.50;69.30;;;;;;5075194;28;20205;-84
2022/04/20 08:38:44;;;;;;;6.00;3.43;;;14.50;69.40;;;;;;5075301;28;20209;-83
2022/04/20 08:41:15;;;;;;;5.90;3.77;;;14.60;69.50;;;;;;5082402;28;20193;-80
2022/04/20 08:43:45;;;;;;;7.50;4.50;;;14.80;69.70;;;;;;5083145;28;20193;-82
2022/04/20 08:46:16;;;;;;;6.57;4.63;;;14.90;69.40;;;;;;5080627;28;20186;-84
2022/04/20 08:48:48;;;;;;;7.83;4.53;;;15.00;68.70;;;;;;5079909;28;20189;-83
2022/04/20 08:51:19;;;;;;;8.33;4.80;;;15.00;68.20;;;;;;5078317;28;20255;-80
2022/04/20 08:53:47;;;;;;;8.43;5.50;;;15.10;68.00;;;;;;5078612;28;20214;-84
2022/04/20 08:59:05;;;;;;;9.20;5.60;;;15.20;67.20;;;;;;5081140;28;20194;-78
2022/04/20 09:01:33;;;;;;;8.87;4.43;;;15.30;66.90;;;;;;5081266;28;20189;-79
2022/04/20 09:04:04;;;;;;;7.73;3.70;;;15.40;67.50;;;;;;5078747;28;20252;-77
2022/04/20 09:06:34;;;;;;;7.50;4.03;;;15.50;67.50;;;;;;5077063;28;20702;-80
2022/04/20 09:09:03;;;;;;;5.03;2.97;;;15.50;66.40;;;;;;5077688;28;20193;-80
2022/04/20 09:11:35;;;;;;;4.60;2.70;;;15.60;65.10;;;;;;5080481;28;20202;-84
2022/04/20 09:14:14;;;;;;;4.43;2.77;;;15.60;62.60;;;;;;5077626;28;20294;-79
2022/04/20 09:16:44;;;;;;;6.30;3.80;;;15.60;62.30;;;;;;5083055;28;20193;-82
2022/04/20 09:19:13;;;;;;;4.60;2.80;;;15.70;61.70;;;;;;5083281;28;20655;-79
2022/04/20 09:21:48;;;;;;;4.73;3.10;;;15.80;62.70;;;;;;5073720;28;20209;-83
2022/04/20 09:24:17;;;;;;;9.27;3.77;;;15.80;64.10;;;;;;5081735;28;20240;-83
2022/04/20 09:26:53;;;;;;;7.73;3.40;;;15.90;63.60;;;;;;5076510;28;20207;-78
2022/04/20 09:29:26;;;;;;;5.27;3.63;;;15.90;62.20;;;;;;5080377;28;20208;-83
2022/04/20 09:31:54;;;;;;;6.17;3.10;;;16.00;62.40;;;;;;5082976;28;20201;-80
2022/04/20 09:34:54;;;;;;;5.43;2.60;;;16.10;61.90;;;;;;5080621;28;20308;-81
2022/04/20 09:37:23;;;;;;;4.40;3.03;;;16.10;61.30;;;;;;5078239;28;20194;-81
2022/04/20 09:39:52;;;;;;;7.17;3.23;;;16.20;61.20;;;;;;5080866;28;20197;-77
2022/04/20 09:42:21;;;;;;;3.80;2.70;;;16.30;60.90;;;;;;5081818;28;20198;-77
2022/04/20 09:44:56;;;;;;;5.30;2.87;;;16.30;60.40;;;;;;5078248;28;20190;-78
2022/04/20 09:50:11;;;;;;;5.30;3.10;;;16.40;60.90;;;;;;5077348;28;20192;-78
2022/04/20 09:52:41;;;;;;;4.57;3.30;;;16.40;61.10;;;;;;5083744;28;20206;-79
2022/04/20 09:55:13;;;;;;;4.57;3.30;;;16.40;61.10;;;;;;5082870;28;20217;-76
2022/04/20 09:57:42;;;;;;;4.27;3.07;;;16.50;61.70;;;;;;5082235;28;20194;-77
2022/04/20 10:00:13;;;;;;;4.07;2.70;;;16.50;61.40;;;;;;5081705;28;20738;-76
2022/04/20 10:02:48;;;;;;;6.03;2.97;;;16.50;61.10;;;;;;5080478;28;20792;-76
2022/04/20 10:05:18;;;;;;;7.50;2.90;;;16.60;61.20;;;;;;5083948;28;20186;-81
2022/04/20 10:07:53;;;;;;;4.37;2.83;;;16.70;61.70;;;;;;5077252;28;20189;-79
2022/04/20 10:10:22;;;;;;;4.23;2.63;;;16.70;60.90;;;;;;5074475;28;20205;-78
2022/04/20 10:12:54;;;;;;;3.90;2.70;;;16.80;60.10;;;;;;5075931;28;20205;-82
2022/04/20 10:18:19;;;;;;;5.93;2.10;;;16.80;59.10;;;;;;5078305;28;20201;-78
2022/04/20 10:20:51;;;;;;;3.23;1.87;;;16.80;58.10;;;;;;5075113;28;20194;-77
2022/04/20 10:23:21;;;;;;;3.07;1.97;;;16.80;56.70;;;;;;5080231;28;20264;-80
2022/04/20 10:25:51;;;;;;;3.93;2.30;;;16.80;56.30;;;;;;5076985;28;20206;-79
2022/04/20 10:28:28;;;;;;;4.30;2.07;;;16.90;57.30;;;;;;5074765;28;20211;-79
2022/04/20 10:31:19;;;;;;;2.47;1.70;;;16.90;57.60;;;;;;5082247;28;20194;-81
2022/04/20 10:33:49;;;;;;;3.77;2.00;;;16.90;55.50;;;;;;5077989;28;20205;-80
2022/04/20 10:36:19;;;;;;;5.87;2.50;;;17.00;55.70;;;;;;5080019;28;20256;-76
2022/04/20 10:38:47;;;;;;;7.30;2.13;;;17.10;56.70;;;;;;5079053;28;20265;-79
2022/04/20 10:41:18;;;;;;;2.37;1.80;;;17.10;57.00;;;;;;5076526;28;20198;-78
2022/04/20 10:43:47;;;;;;;4.07;2.30;;;17.20;57.10;;;;;;5079335;28;20197;-76
2022/04/20 10:46:19;;;;;;;6.37;2.20;;;17.20;56.80;;;;;;5074154;28;20194;-78
2022/04/20 10:48:49;;;;;;;3.47;1.73;;;17.20;57.30;;;;;;5082109;28;20285;-77
2022/04/20 10:51:19;;;;;;;5.97;2.33;;;17.30;57.70;;;;;;5079844;28;20198;-80
2022/04/20 10:53:50;;;;;;;3.20;2.30;;;17.30;56.60;;;;;;5080832;28;20202;-83
2022/04/20 10:56:20;;;;;;;3.53;2.43;;;17.40;56.50;;;;;;5076884;28;20934;-82
2022/04/20 10:59:39;;;;;;;4.67;2.70;;;17.40;56.10;;;;;;5080277;28;20254;-82
2022/04/20 11:02:15;;;;;;;6.67;2.80;;;17.40;56.70;;;;;;5080953;28;20204;-80
2022/04/20 11:04:50;;;;;;;3.50;2.17;;;17.50;57.40;;;;;;5077479;28;20285;-78
2022/04/20 11:07:20;;;;;;;3.63;2.13;;;17.50;55.80;;;;;;5077624;28;20202;-78
2022/04/20 11:10:27;;;;;;;3.00;2.17;;;17.50;56.00;;;;;;5079374;28;20201;-80
2022/04/20 11:19:05;;;;;;;4.03;2.33;;;17.60;56.50;;;;;;5076922;28;20251;-80
2022/04/20 11:21:34;;;;;;;3.80;2.10;;;17.60;56.20;;;;;;5079083;28;20220;-78
2022/04/20 11:24:45;;;;;;;2.60;1.73;;;17.60;55.30;;;;;;5078175;28;20237;-82
2022/04/20 11:28:11;;;;;;;3.07;1.50;;;17.50;53.90;;;;;;5074058;28;20201;-83
2022/04/20 11:30:45;;;;;;;2.60;1.83;;;17.60;55.00;;;;;;5070783;28;20197;-79
2022/04/20 11:33:15;;;;;;;6.40;1.97;;;17.60;54.30;;;;;;5074698;28;20197;-84
2022/04/20 11:35:58;;;;;;;4.50;2.10;;;17.60;54.50;;;;;;5078867;28;20205;-82
2022/04/20 11:38:36;;;;;;;2.77;1.80;;;17.60;54.20;;;;;;5076805;28;20208;-76
2022/04/20 11:41:05;;;;;;;3.43;2.00;;;17.50;53.70;;;;;;5079116;28;20189;-82
2022/04/20 11:43:34;;;;;;;2.90;1.80;;;17.50;53.70;;;;;;5073041;28;20529;-82
2022/04/20 11:46:08;;;;;;;2.47;1.87;;;17.50;54.20;;;;;;5081185;28;20273;-80
2022/04/20 11:48:38;;;;;;;9.50;1.80;;;17.60;54.40;;;;;;5080251;28;20197;-83
2022/04/20 11:51:10;;;;;;;2.30;1.60;;;17.60;53.80;;;;;;5074871;28;20266;-81
2022/04/20 11:53:42;;;;;;;3.33;1.70;;;17.60;52.30;;;;;;5075343;28;20188;-78
2022/04/20 11:56:11;;;;;;;5.63;1.80;;;17.60;51.90;;;;;;5080904;28;20201;-80
2022/04/20 11:58:39;;;;;;;3.77;2.10;;;17.60;52.70;;;;;;5075673;28;20206;-79
2022/04/20 12:01:11;;;;;;;2.53;1.80;;;17.70;53.00;;;;;;5076007;28;20196;-80
2022/04/20 12:03:42;;;;;;;1.87;1.40;;;17.70;52.70;;;;;;5075778;28;20202;-78
2022/04/20 12:06:12;;;;;;;2.73;1.57;;;17.60;50.90;;;;;;5076112;28;20576;-79
2022/04/20 12:08:44;;;;;;;3.13;1.50;;;17.70;50.50;;;;;;5078004;28;20824;-73
2022/04/20 12:11:15;;;;;;;3.80;1.70;;;17.70;50.90;;;;;;5073915;28;21558;-77
2022/04/20 12:13:43;;;;;;;2.73;1.70;;;17.70;51.10;;;;;;5076283;28;20197;-77
2022/04/20 12:16:13;;;;;;;3.80;2.13;;;17.70;52.10;;;;;;5075499;28;21005;-79
2022/04/20 12:18:44;;;;;;;2.77;1.67;;;17.70;51.60;;;;;;5073734;28;20201;-78
2022/04/20 12:21:40;;;;;;;2.87;2.03;;;17.80;52.10;;;;;;5076816;28;20927;-77
2022/04/20 12:24:10;;;;;;;3.23;2.00;;;17.80;52.10;;;;;;5074381;28;20615;-76
2022/04/20 12:26:43;;;;;;;3.27;1.87;;;17.90;52.00;;;;;;5063928;28;20204;-80
2022/04/20 12:29:15;;;;;;;2.83;2.00;;;17.90;52.10;;;;;;5080335;28;20436;-78
2022/04/20 12:31:44;;;;;;;4.10;2.30;;;17.90;51.80;;;;;;5080671;28;20197;-77
2022/04/20 12:34:15;;;;;;;4.07;2.03;;;17.90;52.00;;;;;;5074246;28;20233;-77
2022/04/20 12:36:59;;;;;;;3.23;2.07;;;17.90;52.10;;;;;;5080774;28;20202;-78
2022/04/20 12:39:45;;;;;;;3.83;2.30;;;17.90;51.70;;;;;;5078463;28;20225;-79
2022/04/20 12:42:17;;;;;;;3.53;2.10;;;17.90;52.30;;;;;;5075112;28;20204;-77
2022/04/20 12:48:03;;;;;;;3.93;2.20;;;17.90;52.10;;;;;;5076511;28;20782;-83
2022/04/20 12:50:36;;;;;;;6.53;2.07;;;17.90;52.60;;;;;;5015564;28;20929;-82
2022/04/20 12:53:09;;;;;;;3.53;2.00;;;17.90;52.70;;;;;;5074769;28;20728;-78
2022/04/20 12:55:43;;;;;;;6.60;2.77;;;17.90;52.30;;;;;;5076376;28;20305;-78
2022/04/20 13:03:49;;;;;;;4.27;2.33;;;17.80;52.30;;;;;;5075293;28;20194;-79
2022/04/20 13:06:17;;;;;;;2.83;2.10;;;17.70;52.70;;;;;;5076960;28;20186;-82
2022/04/20 13:08:47;;;;;;;3.00;2.17;;;17.60;52.70;;;;;;5073323;28;20906;-78
2022/04/20 13:11:16;;;;;;;6.80;3.17;;;17.60;52.30;;;;;;5075765;28;20201;-79
2022/04/20 13:14:05;;;;;;;6.87;2.40;;;17.50;53.10;;;;;;5075781;28;20313;-80
2022/04/20 13:16:33;;;;;;;3.47;2.37;;;17.40;52.90;;;;;;5076141;28;20326;-78
2022/04/20 13:19:02;;;;;;;6.90;3.30;;;17.40;53.20;;;;;;5077712;28;20201;-82
2022/04/20 13:21:30;;;;;;;3.53;2.70;;;17.30;53.10;;;;;;5076167;28;20209;-81
2022/04/20 13:24:02;;;;;;;4.93;2.30;;;17.30;53.40;;;;;;5075412;28;20249;-80
2022/04/20 13:29:16;;;;;;;8.67;3.10;;;17.20;53.50;;;;;;5076650;28;20193;-77
2022/04/20 13:31:45;;;;;;;5.63;3.03;;;17.20;54.00;;;;;;5072847;28;20258;-84
2022/04/20 13:34:14;;;;;;;3.27;1.97;;;17.10;53.90;;;;;;5082017;28;20198;-79
2022/04/20 13:36:42;;;;;;;2.90;2.03;;;17.00;53.60;;;;;;5078154;28;20224;-76
2022/04/20 13:39:12;;;;;;;7.00;2.80;;;17.00;52.90;;;;;;5080442;28;20201;-82
2022/04/20 13:41:40;;;;;;;3.90;2.17;;;16.90;53.40;;;;;;5079712;28;20201;-80
2022/04/20 13:44:09;;;;;;;2.80;1.70;;;16.90;53.00;;;;;;5083189;28;20210;-77
2022/04/20 13:46:37;;;;;;;3.53;2.00;;;16.80;52.90;;;;;;5073609;28;20866;-77
2022/04/20 13:49:09;;;;;;;2.40;1.70;;;16.80;53.10;;;;;;5080934;28;20204;-81